<?xml version="1.0" encoding="UTF-8" standalone="no" ?>
<gpx xmlns="http://www.topografix.com/GPX/1/1" xmlns:xsi="http://www.w3.org/2001/XMLSchema-instance" xsi:schemaLocation="http://www.topografix.com/GPX/1/1 http://www.topografix.com/GPX/1/1/gpx.xsd" version="1.1" creator="VisuGPX - https://www.visugpx.com">
  <metadata>
    <name>cross regional</name>
    <desc><![CDATA[tracé cross régional]]></desc>
  </metadata>
  <trk>
    <name><![CDATA[Prats de Molló Course à pied]]></name>
    <trkseg>
      <trkpt lat="42.40197" lon="2.48063">
        <ele>729</ele>
        <time>2015-12-17T15:27:58.000Z</time>
      </trkpt>
      <trkpt lat="42.40197" lon="2.4806">
        <ele>729.40002441406</ele>
        <time>2015-12-17T15:28:01.000Z</time>
      </trkpt>
      <trkpt lat="42.40198" lon="2.48057">
        <ele>729.59997558594</ele>
        <time>2015-12-17T15:28:02.000Z</time>
      </trkpt>
      <trkpt lat="42.40201" lon="2.48049">
        <ele>730.79998779297</ele>
        <time>2015-12-17T15:28:07.000Z</time>
      </trkpt>
      <trkpt lat="42.40202" lon="2.48046">
        <ele>731.20001220703</ele>
        <time>2015-12-17T15:28:09.000Z</time>
      </trkpt>
      <trkpt lat="42.40205" lon="2.48036">
        <ele>732</ele>
        <time>2015-12-17T15:28:14.000Z</time>
      </trkpt>
      <trkpt lat="42.4021" lon="2.48026">
        <ele>731.79998779297</ele>
        <time>2015-12-17T15:28:20.000Z</time>
      </trkpt>
      <trkpt lat="42.40216" lon="2.48018">
        <ele>731.59997558594</ele>
        <time>2015-12-17T15:28:26.000Z</time>
      </trkpt>
      <trkpt lat="42.40223" lon="2.48013">
        <ele>730.79998779297</ele>
        <time>2015-12-17T15:28:32.000Z</time>
      </trkpt>
      <trkpt lat="42.4023" lon="2.48016">
        <ele>729.59997558594</ele>
        <time>2015-12-17T15:28:39.000Z</time>
      </trkpt>
      <trkpt lat="42.40236" lon="2.48016">
        <ele>728.79998779297</ele>
        <time>2015-12-17T15:28:44.000Z</time>
      </trkpt>
      <trkpt lat="42.40237" lon="2.48016">
        <ele>728.59997558594</ele>
        <time>2015-12-17T15:28:45.000Z</time>
      </trkpt>
      <trkpt lat="42.40238" lon="2.48017">
        <ele>728.40002441406</ele>
        <time>2015-12-17T15:28:46.000Z</time>
      </trkpt>
      <trkpt lat="42.4024" lon="2.48025">
        <ele>727.79998779297</ele>
        <time>2015-12-17T15:28:50.000Z</time>
      </trkpt>
      <trkpt lat="42.40239" lon="2.48031">
        <ele>727.59997558594</ele>
        <time>2015-12-17T15:28:54.000Z</time>
      </trkpt>
      <trkpt lat="42.40237" lon="2.4804">
        <ele>727.20001220703</ele>
        <time>2015-12-17T15:29:00.000Z</time>
      </trkpt>
      <trkpt lat="42.40237" lon="2.48042">
        <ele>727.20001220703</ele>
        <time>2015-12-17T15:29:01.000Z</time>
      </trkpt>
      <trkpt lat="42.40234" lon="2.48053">
        <ele>727</ele>
        <time>2015-12-17T15:29:07.000Z</time>
      </trkpt>
      <trkpt lat="42.40229" lon="2.48067">
        <ele>726.40002441406</ele>
        <time>2015-12-17T15:29:15.000Z</time>
      </trkpt>
      <trkpt lat="42.40226" lon="2.48076">
        <ele>725.40002441406</ele>
        <time>2015-12-17T15:29:20.000Z</time>
      </trkpt>
      <trkpt lat="42.40225" lon="2.4808">
        <ele>724.79998779297</ele>
        <time>2015-12-17T15:29:22.000Z</time>
      </trkpt>
      <trkpt lat="42.40223" lon="2.48085">
        <ele>724.40002441406</ele>
        <time>2015-12-17T15:29:26.000Z</time>
      </trkpt>
      <trkpt lat="42.40221" lon="2.48093">
        <ele>724.40002441406</ele>
        <time>2015-12-17T15:29:31.000Z</time>
      </trkpt>
      <trkpt lat="42.4022" lon="2.48098">
        <ele>724.40002441406</ele>
        <time>2015-12-17T15:29:34.000Z</time>
      </trkpt>
      <trkpt lat="42.40218" lon="2.48105">
        <ele>724.20001220703</ele>
        <time>2015-12-17T15:29:38.000Z</time>
      </trkpt>
      <trkpt lat="42.40216" lon="2.48113">
        <ele>724.20001220703</ele>
        <time>2015-12-17T15:29:43.000Z</time>
      </trkpt>
      <trkpt lat="42.40213" lon="2.48123">
        <ele>724.20001220703</ele>
        <time>2015-12-17T15:29:48.000Z</time>
      </trkpt>
      <trkpt lat="42.40212" lon="2.48126">
        <ele>724.20001220703</ele>
        <time>2015-12-17T15:29:50.000Z</time>
      </trkpt>
      <trkpt lat="42.40211" lon="2.48131">
        <ele>724</ele>
        <time>2015-12-17T15:29:52.000Z</time>
      </trkpt>
      <trkpt lat="42.40209" lon="2.48135">
        <ele>723.79998779297</ele>
        <time>2015-12-17T15:29:54.000Z</time>
      </trkpt>
      <trkpt lat="42.40205" lon="2.48147">
        <ele>723.20001220703</ele>
        <time>2015-12-17T15:30:00.000Z</time>
      </trkpt>
      <trkpt lat="42.40202" lon="2.48155">
        <ele>722.79998779297</ele>
        <time>2015-12-17T15:30:05.000Z</time>
      </trkpt>
      <trkpt lat="42.40202" lon="2.48157">
        <ele>722.59997558594</ele>
        <time>2015-12-17T15:30:06.000Z</time>
      </trkpt>
      <trkpt lat="42.40199" lon="2.48165">
        <ele>722.20001220703</ele>
        <time>2015-12-17T15:30:10.000Z</time>
      </trkpt>
      <trkpt lat="42.40193" lon="2.48174">
        <ele>722.20001220703</ele>
        <time>2015-12-17T15:30:16.000Z</time>
      </trkpt>
      <trkpt lat="42.40192" lon="2.48175">
        <ele>722.20001220703</ele>
        <time>2015-12-17T15:30:17.000Z</time>
      </trkpt>
      <trkpt lat="42.40189" lon="2.48177">
        <ele>722.40002441406</ele>
        <time>2015-12-17T15:30:19.000Z</time>
      </trkpt>
      <trkpt lat="42.40184" lon="2.48178">
        <ele>722.40002441406</ele>
        <time>2015-12-17T15:30:22.000Z</time>
      </trkpt>
      <trkpt lat="42.40176" lon="2.48173">
        <ele>722.59997558594</ele>
        <time>2015-12-17T15:30:27.000Z</time>
      </trkpt>
      <trkpt lat="42.4017" lon="2.48168">
        <ele>722.79998779297</ele>
        <time>2015-12-17T15:30:31.000Z</time>
      </trkpt>
      <trkpt lat="42.40167" lon="2.48166">
        <ele>723</ele>
        <time>2015-12-17T15:30:33.000Z</time>
      </trkpt>
      <trkpt lat="42.40161" lon="2.48161">
        <ele>723.59997558594</ele>
        <time>2015-12-17T15:30:37.000Z</time>
      </trkpt>
      <trkpt lat="42.40158" lon="2.48159">
        <ele>723.79998779297</ele>
        <time>2015-12-17T15:30:39.000Z</time>
      </trkpt>
      <trkpt lat="42.40154" lon="2.48158">
        <ele>724</ele>
        <time>2015-12-17T15:30:41.000Z</time>
      </trkpt>
      <trkpt lat="42.40153" lon="2.48157">
        <ele>724.20001220703</ele>
        <time>2015-12-17T15:30:42.000Z</time>
      </trkpt>
      <trkpt lat="42.40152" lon="2.48157">
        <ele>724.20001220703</ele>
        <time>2015-12-17T15:30:43.000Z</time>
      </trkpt>
      <trkpt lat="42.40149" lon="2.48152">
        <ele>724.59997558594</ele>
        <time>2015-12-17T15:30:47.000Z</time>
      </trkpt>
      <trkpt lat="42.40149" lon="2.48152">
        <ele>724.79998779297</ele>
        <time>2015-12-17T15:30:48.000Z</time>
      </trkpt>
      <trkpt lat="42.40146" lon="2.48146">
        <ele>725.20001220703</ele>
        <time>2015-12-17T15:30:52.000Z</time>
      </trkpt>
      <trkpt lat="42.40144" lon="2.48142">
        <ele>725.40002441406</ele>
        <time>2015-12-17T15:30:55.000Z</time>
      </trkpt>
      <trkpt lat="42.40143" lon="2.4814">
        <ele>725.59997558594</ele>
        <time>2015-12-17T15:30:57.000Z</time>
      </trkpt>
      <trkpt lat="42.40142" lon="2.48139">
        <ele>725.79998779297</ele>
        <time>2015-12-17T15:30:58.000Z</time>
      </trkpt>
      <trkpt lat="42.40138" lon="2.48134">
        <ele>726.20001220703</ele>
        <time>2015-12-17T15:31:02.000Z</time>
      </trkpt>
      <trkpt lat="42.40137" lon="2.48133">
        <ele>726.40002441406</ele>
        <time>2015-12-17T15:31:03.000Z</time>
      </trkpt>
      <trkpt lat="42.40137" lon="2.48131">
        <ele>726.40002441406</ele>
        <time>2015-12-17T15:31:04.000Z</time>
      </trkpt>
      <trkpt lat="42.40138" lon="2.48126">
        <ele>726.79998779297</ele>
        <time>2015-12-17T15:31:07.000Z</time>
      </trkpt>
      <trkpt lat="42.40141" lon="2.4812">
        <ele>727</ele>
        <time>2015-12-17T15:31:12.000Z</time>
      </trkpt>
      <trkpt lat="42.40143" lon="2.48118">
        <ele>727</ele>
        <time>2015-12-17T15:31:13.000Z</time>
      </trkpt>
      <trkpt lat="42.40148" lon="2.48116">
        <ele>726.79998779297</ele>
        <time>2015-12-17T15:31:17.000Z</time>
      </trkpt>
      <trkpt lat="42.40152" lon="2.48115">
        <ele>726.79998779297</ele>
        <time>2015-12-17T15:31:20.000Z</time>
      </trkpt>
      <trkpt lat="42.40156" lon="2.48114">
        <ele>726.59997558594</ele>
        <time>2015-12-17T15:31:23.000Z</time>
      </trkpt>
      <trkpt lat="42.40159" lon="2.48112">
        <ele>726.59997558594</ele>
        <time>2015-12-17T15:31:26.000Z</time>
      </trkpt>
      <trkpt lat="42.40161" lon="2.48108">
        <ele>726.59997558594</ele>
        <time>2015-12-17T15:31:29.000Z</time>
      </trkpt>
      <trkpt lat="42.40167" lon="2.48101">
        <ele>726.79998779297</ele>
        <time>2015-12-17T15:31:34.000Z</time>
      </trkpt>
      <trkpt lat="42.40172" lon="2.48096">
        <ele>727</ele>
        <time>2015-12-17T15:31:39.000Z</time>
      </trkpt>
      <trkpt lat="42.40177" lon="2.48091">
        <ele>727.20001220703</ele>
        <time>2015-12-17T15:31:44.000Z</time>
      </trkpt>
      <trkpt lat="42.40178" lon="2.4809">
        <ele>727</ele>
        <time>2015-12-17T15:31:45.000Z</time>
      </trkpt>
      <trkpt lat="42.40179" lon="2.4809">
        <ele>727</ele>
        <time>2015-12-17T15:31:51.000Z</time>
      </trkpt>
      <trkpt lat="42.40183" lon="2.48082">
        <ele>727.20001220703</ele>
        <time>2015-12-17T15:31:58.000Z</time>
      </trkpt>
      <trkpt lat="42.40185" lon="2.48077">
        <ele>727.59997558594</ele>
        <time>2015-12-17T15:32:01.000Z</time>
      </trkpt>
      <trkpt lat="42.40187" lon="2.48074">
        <ele>728</ele>
        <time>2015-12-17T15:32:03.000Z</time>
      </trkpt>
      <trkpt lat="42.40188" lon="2.48071">
        <ele>728.40002441406</ele>
        <time>2015-12-17T15:32:05.000Z</time>
      </trkpt>
      <trkpt lat="42.40193" lon="2.48062">
        <ele>729.40002441406</ele>
        <time>2015-12-17T15:32:10.000Z</time>
      </trkpt>
      <trkpt lat="42.40199" lon="2.48049">
        <ele>730.79998779297</ele>
        <time>2015-12-17T15:32:17.000Z</time>
      </trkpt>
      <trkpt lat="42.40204" lon="2.48036">
        <ele>732.20001220703</ele>
        <time>2015-12-17T15:32:25.000Z</time>
      </trkpt>
      <trkpt lat="42.40212" lon="2.48024">
        <ele>731.79998779297</ele>
        <time>2015-12-17T15:32:34.000Z</time>
      </trkpt>
      <trkpt lat="42.40217" lon="2.48017">
        <ele>731.40002441406</ele>
        <time>2015-12-17T15:32:39.000Z</time>
      </trkpt>
      <trkpt lat="42.40227" lon="2.48015">
        <ele>730.20001220703</ele>
        <time>2015-12-17T15:32:46.000Z</time>
      </trkpt>
      <trkpt lat="42.40231" lon="2.48018">
        <ele>729.40002441406</ele>
        <time>2015-12-17T15:32:50.000Z</time>
      </trkpt>
      <trkpt lat="42.40233" lon="2.48018">
        <ele>729</ele>
        <time>2015-12-17T15:32:52.000Z</time>
      </trkpt>
      <trkpt lat="42.40237" lon="2.48023">
        <ele>728.20001220703</ele>
        <time>2015-12-17T15:32:57.000Z</time>
      </trkpt>
      <trkpt lat="42.40237" lon="2.48029">
        <ele>727.79998779297</ele>
        <time>2015-12-17T15:33:00.000Z</time>
      </trkpt>
      <trkpt lat="42.40237" lon="2.48033">
        <ele>727.79998779297</ele>
        <time>2015-12-17T15:33:02.000Z</time>
      </trkpt>
      <trkpt lat="42.40235" lon="2.48038">
        <ele>727.59997558594</ele>
        <time>2015-12-17T15:33:05.000Z</time>
      </trkpt>
      <trkpt lat="42.40235" lon="2.48041">
        <ele>727.40002441406</ele>
        <time>2015-12-17T15:33:07.000Z</time>
      </trkpt>
      <trkpt lat="42.40233" lon="2.48051">
        <ele>727.20001220703</ele>
        <time>2015-12-17T15:33:13.000Z</time>
      </trkpt>
      <trkpt lat="42.40231" lon="2.48062">
        <ele>726.79998779297</ele>
        <time>2015-12-17T15:33:19.000Z</time>
      </trkpt>
      <trkpt lat="42.40229" lon="2.48072">
        <ele>725.79998779297</ele>
        <time>2015-12-17T15:33:25.000Z</time>
      </trkpt>
      <trkpt lat="42.40228" lon="2.48073">
        <ele>725.59997558594</ele>
        <time>2015-12-17T15:33:26.000Z</time>
      </trkpt>
      <trkpt lat="42.40227" lon="2.48077">
        <ele>725.20001220703</ele>
        <time>2015-12-17T15:33:28.000Z</time>
      </trkpt>
      <trkpt lat="42.40225" lon="2.48081">
        <ele>724.79998779297</ele>
        <time>2015-12-17T15:33:31.000Z</time>
      </trkpt>
      <trkpt lat="42.40224" lon="2.4809">
        <ele>724.40002441406</ele>
        <time>2015-12-17T15:33:37.000Z</time>
      </trkpt>
      <trkpt lat="42.40222" lon="2.48098">
        <ele>724.20001220703</ele>
        <time>2015-12-17T15:33:42.000Z</time>
      </trkpt>
      <trkpt lat="42.4022" lon="2.48108">
        <ele>724.20001220703</ele>
        <time>2015-12-17T15:33:48.000Z</time>
      </trkpt>
      <trkpt lat="42.40218" lon="2.48114">
        <ele>724</ele>
        <time>2015-12-17T15:33:52.000Z</time>
      </trkpt>
      <trkpt lat="42.40217" lon="2.48117">
        <ele>724</ele>
        <time>2015-12-17T15:33:54.000Z</time>
      </trkpt>
      <trkpt lat="42.40213" lon="2.48128">
        <ele>724</ele>
        <time>2015-12-17T15:34:00.000Z</time>
      </trkpt>
      <trkpt lat="42.40212" lon="2.48132">
        <ele>724</ele>
        <time>2015-12-17T15:34:02.000Z</time>
      </trkpt>
      <trkpt lat="42.40211" lon="2.48136">
        <ele>723.79998779297</ele>
        <time>2015-12-17T15:34:04.000Z</time>
      </trkpt>
      <trkpt lat="42.40211" lon="2.48139">
        <ele>723.59997558594</ele>
        <time>2015-12-17T15:34:06.000Z</time>
      </trkpt>
      <trkpt lat="42.4021" lon="2.48144">
        <ele>723.20001220703</ele>
        <time>2015-12-17T15:34:08.000Z</time>
      </trkpt>
      <trkpt lat="42.40209" lon="2.48147">
        <ele>723.20001220703</ele>
        <time>2015-12-17T15:34:10.000Z</time>
      </trkpt>
      <trkpt lat="42.40209" lon="2.48151">
        <ele>722.79998779297</ele>
        <time>2015-12-17T15:34:12.000Z</time>
      </trkpt>
      <trkpt lat="42.40208" lon="2.48159">
        <ele>722.40002441406</ele>
        <time>2015-12-17T15:34:16.000Z</time>
      </trkpt>
      <trkpt lat="42.40205" lon="2.48168">
        <ele>722</ele>
        <time>2015-12-17T15:34:21.000Z</time>
      </trkpt>
      <trkpt lat="42.40204" lon="2.4817">
        <ele>722</ele>
        <time>2015-12-17T15:34:22.000Z</time>
      </trkpt>
      <trkpt lat="42.40201" lon="2.4818">
        <ele>722</ele>
        <time>2015-12-17T15:34:26.000Z</time>
      </trkpt>
      <trkpt lat="42.40197" lon="2.48191">
        <ele>722</ele>
        <time>2015-12-17T15:34:32.000Z</time>
      </trkpt>
      <trkpt lat="42.40197" lon="2.48193">
        <ele>722</ele>
        <time>2015-12-17T15:34:34.000Z</time>
      </trkpt>
      <trkpt lat="42.40195" lon="2.48195">
        <ele>722</ele>
        <time>2015-12-17T15:34:36.000Z</time>
      </trkpt>
      <trkpt lat="42.40188" lon="2.48197">
        <ele>721.79998779297</ele>
        <time>2015-12-17T15:34:40.000Z</time>
      </trkpt>
      <trkpt lat="42.40181" lon="2.48198">
        <ele>721.79998779297</ele>
        <time>2015-12-17T15:34:43.000Z</time>
      </trkpt>
      <trkpt lat="42.4018" lon="2.48198">
        <ele>721.79998779297</ele>
        <time>2015-12-17T15:34:44.000Z</time>
      </trkpt>
      <trkpt lat="42.4017" lon="2.482">
        <ele>721.79998779297</ele>
        <time>2015-12-17T15:34:49.000Z</time>
      </trkpt>
      <trkpt lat="42.40169" lon="2.48201">
        <ele>721.79998779297</ele>
        <time>2015-12-17T15:34:50.000Z</time>
      </trkpt>
      <trkpt lat="42.40167" lon="2.48201">
        <ele>721.79998779297</ele>
        <time>2015-12-17T15:34:51.000Z</time>
      </trkpt>
      <trkpt lat="42.40162" lon="2.48203">
        <ele>721.79998779297</ele>
        <time>2015-12-17T15:34:54.000Z</time>
      </trkpt>
      <trkpt lat="42.40156" lon="2.48207">
        <ele>722.20001220703</ele>
        <time>2015-12-17T15:34:59.000Z</time>
      </trkpt>
      <trkpt lat="42.40149" lon="2.48208">
        <ele>722.79998779297</ele>
        <time>2015-12-17T15:35:03.000Z</time>
      </trkpt>
      <trkpt lat="42.40148" lon="2.48208">
        <ele>723</ele>
        <time>2015-12-17T15:35:04.000Z</time>
      </trkpt>
      <trkpt lat="42.40146" lon="2.48208">
        <ele>723</ele>
        <time>2015-12-17T15:35:05.000Z</time>
      </trkpt>
      <trkpt lat="42.40138" lon="2.48207">
        <ele>723.79998779297</ele>
        <time>2015-12-17T15:35:11.000Z</time>
      </trkpt>
      <trkpt lat="42.40137" lon="2.48207">
        <ele>724</ele>
        <time>2015-12-17T15:35:12.000Z</time>
      </trkpt>
      <trkpt lat="42.40135" lon="2.48208">
        <ele>724</ele>
        <time>2015-12-17T15:35:15.000Z</time>
      </trkpt>
      <trkpt lat="42.40134" lon="2.48208">
        <ele>724.20001220703</ele>
        <time>2015-12-17T15:35:16.000Z</time>
      </trkpt>
      <trkpt lat="42.40131" lon="2.48208">
        <ele>724.40002441406</ele>
        <time>2015-12-17T15:35:21.000Z</time>
      </trkpt>
      <trkpt lat="42.40124" lon="2.48213">
        <ele>725</ele>
        <time>2015-12-17T15:35:37.000Z</time>
      </trkpt>
      <trkpt lat="42.40123" lon="2.48217">
        <ele>725.40002441406</ele>
        <time>2015-12-17T15:35:41.000Z</time>
      </trkpt>
      <trkpt lat="42.40123" lon="2.48222">
        <ele>725.59997558594</ele>
        <time>2015-12-17T15:35:45.000Z</time>
      </trkpt>
      <trkpt lat="42.40122" lon="2.48228">
        <ele>726</ele>
        <time>2015-12-17T15:35:50.000Z</time>
      </trkpt>
      <trkpt lat="42.40124" lon="2.48234">
        <ele>726</ele>
        <time>2015-12-17T15:35:55.000Z</time>
      </trkpt>
      <trkpt lat="42.40125" lon="2.48237">
        <ele>725.79998779297</ele>
        <time>2015-12-17T15:35:59.000Z</time>
      </trkpt>
      <trkpt lat="42.40125" lon="2.48238">
        <ele>725.79998779297</ele>
        <time>2015-12-17T15:36:00.000Z</time>
      </trkpt>
      <trkpt lat="42.40125" lon="2.48244">
        <ele>726</ele>
        <time>2015-12-17T15:36:15.000Z</time>
      </trkpt>
      <trkpt lat="42.40123" lon="2.48247">
        <ele>726.40002441406</ele>
        <time>2015-12-17T15:36:21.000Z</time>
      </trkpt>
      <trkpt lat="42.4012" lon="2.48252">
        <ele>727</ele>
        <time>2015-12-17T15:36:27.000Z</time>
      </trkpt>
      <trkpt lat="42.40118" lon="2.48252">
        <ele>727.20001220703</ele>
        <time>2015-12-17T15:36:28.000Z</time>
      </trkpt>
      <trkpt lat="42.40115" lon="2.4825">
        <ele>727.79998779297</ele>
        <time>2015-12-17T15:36:31.000Z</time>
      </trkpt>
      <trkpt lat="42.40112" lon="2.48249">
        <ele>728.20001220703</ele>
        <time>2015-12-17T15:36:33.000Z</time>
      </trkpt>
      <trkpt lat="42.40108" lon="2.48243">
        <ele>728.79998779297</ele>
        <time>2015-12-17T15:36:37.000Z</time>
      </trkpt>
      <trkpt lat="42.40106" lon="2.48242">
        <ele>728.79998779297</ele>
        <time>2015-12-17T15:36:38.000Z</time>
      </trkpt>
      <trkpt lat="42.401" lon="2.48234">
        <ele>729.59997558594</ele>
        <time>2015-12-17T15:36:44.000Z</time>
      </trkpt>
      <trkpt lat="42.40096" lon="2.4823">
        <ele>730</ele>
        <time>2015-12-17T15:36:48.000Z</time>
      </trkpt>
      <trkpt lat="42.40093" lon="2.48226">
        <ele>730.40002441406</ele>
        <time>2015-12-17T15:36:51.000Z</time>
      </trkpt>
      <trkpt lat="42.40092" lon="2.48225">
        <ele>730.59997558594</ele>
        <time>2015-12-17T15:36:52.000Z</time>
      </trkpt>
      <trkpt lat="42.40089" lon="2.48222">
        <ele>730.79998779297</ele>
        <time>2015-12-17T15:36:56.000Z</time>
      </trkpt>
      <trkpt lat="42.40087" lon="2.48222">
        <ele>731.20001220703</ele>
        <time>2015-12-17T15:36:58.000Z</time>
      </trkpt>
      <trkpt lat="42.40082" lon="2.48226">
        <ele>732</ele>
        <time>2015-12-17T15:37:03.000Z</time>
      </trkpt>
      <trkpt lat="42.40084" lon="2.48232">
        <ele>732</ele>
        <time>2015-12-17T15:37:07.000Z</time>
      </trkpt>
      <trkpt lat="42.40088" lon="2.48237">
        <ele>731.59997558594</ele>
        <time>2015-12-17T15:37:11.000Z</time>
      </trkpt>
      <trkpt lat="42.40093" lon="2.48242">
        <ele>731</ele>
        <time>2015-12-17T15:37:16.000Z</time>
      </trkpt>
      <trkpt lat="42.40098" lon="2.48248">
        <ele>730.40002441406</ele>
        <time>2015-12-17T15:37:20.000Z</time>
      </trkpt>
      <trkpt lat="42.40099" lon="2.48249">
        <ele>730.20001220703</ele>
        <time>2015-12-17T15:37:21.000Z</time>
      </trkpt>
      <trkpt lat="42.40103" lon="2.48252">
        <ele>729.59997558594</ele>
        <time>2015-12-17T15:37:24.000Z</time>
      </trkpt>
      <trkpt lat="42.40107" lon="2.48254">
        <ele>729</ele>
        <time>2015-12-17T15:37:27.000Z</time>
      </trkpt>
      <trkpt lat="42.40113" lon="2.48263">
        <ele>728</ele>
        <time>2015-12-17T15:37:34.000Z</time>
      </trkpt>
      <trkpt lat="42.40119" lon="2.48268">
        <ele>727</ele>
        <time>2015-12-17T15:37:38.000Z</time>
      </trkpt>
      <trkpt lat="42.40125" lon="2.48274">
        <ele>726</ele>
        <time>2015-12-17T15:37:43.000Z</time>
      </trkpt>
      <trkpt lat="42.40128" lon="2.48276">
        <ele>725.40002441406</ele>
        <time>2015-12-17T15:37:46.000Z</time>
      </trkpt>
      <trkpt lat="42.40128" lon="2.48277">
        <ele>725.40002441406</ele>
        <time>2015-12-17T15:37:47.000Z</time>
      </trkpt>
      <trkpt lat="42.40129" lon="2.48278">
        <ele>725.40002441406</ele>
        <time>2015-12-17T15:37:48.000Z</time>
      </trkpt>
      <trkpt lat="42.40132" lon="2.4828">
        <ele>724.79998779297</ele>
        <time>2015-12-17T15:37:51.000Z</time>
      </trkpt>
      <trkpt lat="42.40133" lon="2.48282">
        <ele>724.59997558594</ele>
        <time>2015-12-17T15:37:53.000Z</time>
      </trkpt>
      <trkpt lat="42.40134" lon="2.48285">
        <ele>724.40002441406</ele>
        <time>2015-12-17T15:37:55.000Z</time>
      </trkpt>
      <trkpt lat="42.40135" lon="2.48287">
        <ele>724.20001220703</ele>
        <time>2015-12-17T15:37:57.000Z</time>
      </trkpt>
      <trkpt lat="42.40136" lon="2.4829">
        <ele>724</ele>
        <time>2015-12-17T15:37:59.000Z</time>
      </trkpt>
      <trkpt lat="42.40139" lon="2.48297">
        <ele>723.40002441406</ele>
        <time>2015-12-17T15:38:03.000Z</time>
      </trkpt>
      <trkpt lat="42.40141" lon="2.48301">
        <ele>723.20001220703</ele>
        <time>2015-12-17T15:38:06.000Z</time>
      </trkpt>
      <trkpt lat="42.40141" lon="2.48304">
        <ele>723.20001220703</ele>
        <time>2015-12-17T15:38:08.000Z</time>
      </trkpt>
      <trkpt lat="42.4014" lon="2.48312">
        <ele>723.40002441406</ele>
        <time>2015-12-17T15:38:12.000Z</time>
      </trkpt>
      <trkpt lat="42.40141" lon="2.48318">
        <ele>723.59997558594</ele>
        <time>2015-12-17T15:38:16.000Z</time>
      </trkpt>
      <trkpt lat="42.40139" lon="2.48327">
        <ele>724.59997558594</ele>
        <time>2015-12-17T15:38:21.000Z</time>
      </trkpt>
      <trkpt lat="42.40139" lon="2.48335">
        <ele>724.79998779297</ele>
        <time>2015-12-17T15:38:26.000Z</time>
      </trkpt>
      <trkpt lat="42.40138" lon="2.48342">
        <ele>724.79998779297</ele>
        <time>2015-12-17T15:38:30.000Z</time>
      </trkpt>
      <trkpt lat="42.40139" lon="2.48351">
        <ele>724.20001220703</ele>
        <time>2015-12-17T15:38:36.000Z</time>
      </trkpt>
      <trkpt lat="42.40139" lon="2.48355">
        <ele>724</ele>
        <time>2015-12-17T15:38:38.000Z</time>
      </trkpt>
      <trkpt lat="42.4014" lon="2.4836">
        <ele>723.79998779297</ele>
        <time>2015-12-17T15:38:40.000Z</time>
      </trkpt>
      <trkpt lat="42.4014" lon="2.48364">
        <ele>723.59997558594</ele>
        <time>2015-12-17T15:38:42.000Z</time>
      </trkpt>
      <trkpt lat="42.40138" lon="2.48369">
        <ele>723.79998779297</ele>
        <time>2015-12-17T15:38:45.000Z</time>
      </trkpt>
      <trkpt lat="42.40137" lon="2.48376">
        <ele>723.79998779297</ele>
        <time>2015-12-17T15:38:49.000Z</time>
      </trkpt>
      <trkpt lat="42.40137" lon="2.48377">
        <ele>723.79998779297</ele>
        <time>2015-12-17T15:38:50.000Z</time>
      </trkpt>
      <trkpt lat="42.40137" lon="2.48379">
        <ele>723.59997558594</ele>
        <time>2015-12-17T15:38:51.000Z</time>
      </trkpt>
      <trkpt lat="42.40138" lon="2.48385">
        <ele>723.20001220703</ele>
        <time>2015-12-17T15:38:55.000Z</time>
      </trkpt>
      <trkpt lat="42.40136" lon="2.48393">
        <ele>724</ele>
        <time>2015-12-17T15:38:59.000Z</time>
      </trkpt>
      <trkpt lat="42.40137" lon="2.48399">
        <ele>724.59997558594</ele>
        <time>2015-12-17T15:39:03.000Z</time>
      </trkpt>
      <trkpt lat="42.40135" lon="2.48407">
        <ele>725.79998779297</ele>
        <time>2015-12-17T15:39:07.000Z</time>
      </trkpt>
      <trkpt lat="42.40134" lon="2.48415">
        <ele>726.79998779297</ele>
        <time>2015-12-17T15:39:12.000Z</time>
      </trkpt>
      <trkpt lat="42.40136" lon="2.48423">
        <ele>726.59997558594</ele>
        <time>2015-12-17T15:39:16.000Z</time>
      </trkpt>
      <trkpt lat="42.40137" lon="2.48432">
        <ele>726</ele>
        <time>2015-12-17T15:39:21.000Z</time>
      </trkpt>
      <trkpt lat="42.40139" lon="2.48441">
        <ele>725.20001220703</ele>
        <time>2015-12-17T15:39:26.000Z</time>
      </trkpt>
      <trkpt lat="42.4014" lon="2.48444">
        <ele>725</ele>
        <time>2015-12-17T15:39:28.000Z</time>
      </trkpt>
      <trkpt lat="42.40142" lon="2.48456">
        <ele>724.20001220703</ele>
        <time>2015-12-17T15:39:34.000Z</time>
      </trkpt>
      <trkpt lat="42.40144" lon="2.48462">
        <ele>723.40002441406</ele>
        <time>2015-12-17T15:39:38.000Z</time>
      </trkpt>
      <trkpt lat="42.40144" lon="2.48465">
        <ele>723.40002441406</ele>
        <time>2015-12-17T15:39:40.000Z</time>
      </trkpt>
      <trkpt lat="42.40145" lon="2.48475">
        <ele>723.20001220703</ele>
        <time>2015-12-17T15:39:47.000Z</time>
      </trkpt>
      <trkpt lat="42.40146" lon="2.48482">
        <ele>722.79998779297</ele>
        <time>2015-12-17T15:39:52.000Z</time>
      </trkpt>
      <trkpt lat="42.40147" lon="2.48485">
        <ele>723</ele>
        <time>2015-12-17T15:39:54.000Z</time>
      </trkpt>
      <trkpt lat="42.40148" lon="2.48494">
        <ele>723.20001220703</ele>
        <time>2015-12-17T15:39:59.000Z</time>
      </trkpt>
      <trkpt lat="42.40147" lon="2.48502">
        <ele>724.40002441406</ele>
        <time>2015-12-17T15:40:04.000Z</time>
      </trkpt>
      <trkpt lat="42.40144" lon="2.48512">
        <ele>725.40002441406</ele>
        <time>2015-12-17T15:40:09.000Z</time>
      </trkpt>
      <trkpt lat="42.40144" lon="2.48513">
        <ele>725.59997558594</ele>
        <time>2015-12-17T15:40:10.000Z</time>
      </trkpt>
      <trkpt lat="42.40143" lon="2.48516">
        <ele>726</ele>
        <time>2015-12-17T15:40:13.000Z</time>
      </trkpt>
      <trkpt lat="42.40143" lon="2.48517">
        <ele>726</ele>
        <time>2015-12-17T15:40:14.000Z</time>
      </trkpt>
      <trkpt lat="42.40142" lon="2.48518">
        <ele>726.20001220703</ele>
        <time>2015-12-17T15:40:15.000Z</time>
      </trkpt>
      <trkpt lat="42.40142" lon="2.48522">
        <ele>726.20001220703</ele>
        <time>2015-12-17T15:40:18.000Z</time>
      </trkpt>
      <trkpt lat="42.40143" lon="2.48529">
        <ele>725.59997558594</ele>
        <time>2015-12-17T15:40:23.000Z</time>
      </trkpt>
      <trkpt lat="42.40144" lon="2.48531">
        <ele>725.40002441406</ele>
        <time>2015-12-17T15:40:25.000Z</time>
      </trkpt>
      <trkpt lat="42.40144" lon="2.48535">
        <ele>725</ele>
        <time>2015-12-17T15:40:29.000Z</time>
      </trkpt>
      <trkpt lat="42.40144" lon="2.48537">
        <ele>725.40002441406</ele>
        <time>2015-12-17T15:40:35.000Z</time>
      </trkpt>
      <trkpt lat="42.4014" lon="2.48538">
        <ele>726.79998779297</ele>
        <time>2015-12-17T15:40:40.000Z</time>
      </trkpt>
      <trkpt lat="42.40139" lon="2.48541">
        <ele>727.20001220703</ele>
        <time>2015-12-17T15:40:42.000Z</time>
      </trkpt>
      <trkpt lat="42.40139" lon="2.48544">
        <ele>727.40002441406</ele>
        <time>2015-12-17T15:40:44.000Z</time>
      </trkpt>
      <trkpt lat="42.40138" lon="2.4855">
        <ele>727.59997558594</ele>
        <time>2015-12-17T15:40:48.000Z</time>
      </trkpt>
      <trkpt lat="42.40139" lon="2.48551">
        <ele>727.40002441406</ele>
        <time>2015-12-17T15:40:49.000Z</time>
      </trkpt>
      <trkpt lat="42.40139" lon="2.48556">
        <ele>727</ele>
        <time>2015-12-17T15:40:53.000Z</time>
      </trkpt>
      <trkpt lat="42.40139" lon="2.48558">
        <ele>727.40002441406</ele>
        <time>2015-12-17T15:40:54.000Z</time>
      </trkpt>
      <trkpt lat="42.4014" lon="2.48563">
        <ele>727.40002441406</ele>
        <time>2015-12-17T15:40:56.000Z</time>
      </trkpt>
      <trkpt lat="42.40141" lon="2.48566">
        <ele>727.40002441406</ele>
        <time>2015-12-17T15:40:58.000Z</time>
      </trkpt>
      <trkpt lat="42.40141" lon="2.48572">
        <ele>727.79998779297</ele>
        <time>2015-12-17T15:41:01.000Z</time>
      </trkpt>
      <trkpt lat="42.40142" lon="2.48573">
        <ele>727.40002441406</ele>
        <time>2015-12-17T15:41:02.000Z</time>
      </trkpt>
      <trkpt lat="42.40142" lon="2.48574">
        <ele>727.20001220703</ele>
        <time>2015-12-17T15:41:03.000Z</time>
      </trkpt>
      <trkpt lat="42.40142" lon="2.48581">
        <ele>728.59997558594</ele>
        <time>2015-12-17T15:41:07.000Z</time>
      </trkpt>
      <trkpt lat="42.40141" lon="2.48583">
        <ele>729.20001220703</ele>
        <time>2015-12-17T15:41:08.000Z</time>
      </trkpt>
      <trkpt lat="42.40141" lon="2.48585">
        <ele>729.40002441406</ele>
        <time>2015-12-17T15:41:09.000Z</time>
      </trkpt>
      <trkpt lat="42.40141" lon="2.48588">
        <ele>729.40002441406</ele>
        <time>2015-12-17T15:41:11.000Z</time>
      </trkpt>
      <trkpt lat="42.40142" lon="2.48597">
        <ele>729.20001220703</ele>
        <time>2015-12-17T15:41:16.000Z</time>
      </trkpt>
      <trkpt lat="42.4014" lon="2.48606">
        <ele>730</ele>
        <time>2015-12-17T15:41:20.000Z</time>
      </trkpt>
      <trkpt lat="42.40143" lon="2.48615">
        <ele>728.79998779297</ele>
        <time>2015-12-17T15:41:25.000Z</time>
      </trkpt>
      <trkpt lat="42.40144" lon="2.48616">
        <ele>728.20001220703</ele>
        <time>2015-12-17T15:41:26.000Z</time>
      </trkpt>
      <trkpt lat="42.40143" lon="2.48618">
        <ele>729</ele>
        <time>2015-12-17T15:41:28.000Z</time>
      </trkpt>
      <trkpt lat="42.40142" lon="2.48627">
        <ele>729.59997558594</ele>
        <time>2015-12-17T15:41:33.000Z</time>
      </trkpt>
      <trkpt lat="42.40142" lon="2.48631">
        <ele>729.79998779297</ele>
        <time>2015-12-17T15:41:35.000Z</time>
      </trkpt>
      <trkpt lat="42.40141" lon="2.48634">
        <ele>730.20001220703</ele>
        <time>2015-12-17T15:41:37.000Z</time>
      </trkpt>
      <trkpt lat="42.40141" lon="2.48636">
        <ele>730.40002441406</ele>
        <time>2015-12-17T15:41:38.000Z</time>
      </trkpt>
      <trkpt lat="42.40141" lon="2.48644">
        <ele>730.40002441406</ele>
        <time>2015-12-17T15:41:42.000Z</time>
      </trkpt>
      <trkpt lat="42.40141" lon="2.48647">
        <ele>730.79998779297</ele>
        <time>2015-12-17T15:41:45.000Z</time>
      </trkpt>
      <trkpt lat="42.40141" lon="2.48651">
        <ele>731</ele>
        <time>2015-12-17T15:41:47.000Z</time>
      </trkpt>
      <trkpt lat="42.40143" lon="2.48655">
        <ele>730</ele>
        <time>2015-12-17T15:41:49.000Z</time>
      </trkpt>
      <trkpt lat="42.40144" lon="2.4866">
        <ele>729.40002441406</ele>
        <time>2015-12-17T15:41:51.000Z</time>
      </trkpt>
      <trkpt lat="42.40144" lon="2.48666">
        <ele>729.79998779297</ele>
        <time>2015-12-17T15:41:55.000Z</time>
      </trkpt>
      <trkpt lat="42.40146" lon="2.48676">
        <ele>728.79998779297</ele>
        <time>2015-12-17T15:41:59.000Z</time>
      </trkpt>
      <trkpt lat="42.40147" lon="2.4868">
        <ele>728.59997558594</ele>
        <time>2015-12-17T15:42:02.000Z</time>
      </trkpt>
      <trkpt lat="42.40149" lon="2.48684">
        <ele>727.59997558594</ele>
        <time>2015-12-17T15:42:04.000Z</time>
      </trkpt>
      <trkpt lat="42.40151" lon="2.48693">
        <ele>726.40002441406</ele>
        <time>2015-12-17T15:42:09.000Z</time>
      </trkpt>
      <trkpt lat="42.40154" lon="2.48703">
        <ele>724.79998779297</ele>
        <time>2015-12-17T15:42:15.000Z</time>
      </trkpt>
      <trkpt lat="42.40154" lon="2.48703">
        <ele>724.79998779297</ele>
        <time>2015-12-17T15:42:16.000Z</time>
      </trkpt>
      <trkpt lat="42.40154" lon="2.48709">
        <ele>725.20001220703</ele>
        <time>2015-12-17T15:42:23.000Z</time>
      </trkpt>
      <trkpt lat="42.40154" lon="2.48714">
        <ele>725.40002441406</ele>
        <time>2015-12-17T15:42:29.000Z</time>
      </trkpt>
      <trkpt lat="42.40152" lon="2.48717">
        <ele>726.79998779297</ele>
        <time>2015-12-17T15:42:39.000Z</time>
      </trkpt>
      <trkpt lat="42.40152" lon="2.48724">
        <ele>727.20001220703</ele>
        <time>2015-12-17T15:42:46.000Z</time>
      </trkpt>
      <trkpt lat="42.40151" lon="2.48726">
        <ele>727.59997558594</ele>
        <time>2015-12-17T15:42:47.000Z</time>
      </trkpt>
      <trkpt lat="42.40151" lon="2.48731">
        <ele>728</ele>
        <time>2015-12-17T15:42:50.000Z</time>
      </trkpt>
      <trkpt lat="42.4015" lon="2.48737">
        <ele>728.59997558594</ele>
        <time>2015-12-17T15:42:53.000Z</time>
      </trkpt>
      <trkpt lat="42.40151" lon="2.48742">
        <ele>728</ele>
        <time>2015-12-17T15:42:56.000Z</time>
      </trkpt>
      <trkpt lat="42.40153" lon="2.48752">
        <ele>726.79998779297</ele>
        <time>2015-12-17T15:43:01.000Z</time>
      </trkpt>
      <trkpt lat="42.40153" lon="2.48756">
        <ele>727.40002441406</ele>
        <time>2015-12-17T15:43:03.000Z</time>
      </trkpt>
      <trkpt lat="42.40153" lon="2.48758">
        <ele>727.40002441406</ele>
        <time>2015-12-17T15:43:04.000Z</time>
      </trkpt>
      <trkpt lat="42.40152" lon="2.48761">
        <ele>727.79998779297</ele>
        <time>2015-12-17T15:43:06.000Z</time>
      </trkpt>
      <trkpt lat="42.40153" lon="2.48768">
        <ele>728</ele>
        <time>2015-12-17T15:43:11.000Z</time>
      </trkpt>
      <trkpt lat="42.40151" lon="2.48774">
        <ele>729.20001220703</ele>
        <time>2015-12-17T15:43:15.000Z</time>
      </trkpt>
      <trkpt lat="42.4015" lon="2.48784">
        <ele>730.40002441406</ele>
        <time>2015-12-17T15:43:20.000Z</time>
      </trkpt>
      <trkpt lat="42.40149" lon="2.48793">
        <ele>731.40002441406</ele>
        <time>2015-12-17T15:43:25.000Z</time>
      </trkpt>
      <trkpt lat="42.40148" lon="2.488">
        <ele>732.40002441406</ele>
        <time>2015-12-17T15:43:29.000Z</time>
      </trkpt>
      <trkpt lat="42.40148" lon="2.48803">
        <ele>732.20001220703</ele>
        <time>2015-12-17T15:43:31.000Z</time>
      </trkpt>
      <trkpt lat="42.40148" lon="2.48809">
        <ele>732.79998779297</ele>
        <time>2015-12-17T15:43:35.000Z</time>
      </trkpt>
      <trkpt lat="42.40148" lon="2.48813">
        <ele>732.79998779297</ele>
        <time>2015-12-17T15:43:38.000Z</time>
      </trkpt>
      <trkpt lat="42.40148" lon="2.48814">
        <ele>733</ele>
        <time>2015-12-17T15:43:39.000Z</time>
      </trkpt>
      <trkpt lat="42.40147" lon="2.48815">
        <ele>733.40002441406</ele>
        <time>2015-12-17T15:43:40.000Z</time>
      </trkpt>
      <trkpt lat="42.40146" lon="2.48823">
        <ele>733.40002441406</ele>
        <time>2015-12-17T15:43:45.000Z</time>
      </trkpt>
      <trkpt lat="42.40147" lon="2.48826">
        <ele>732.79998779297</ele>
        <time>2015-12-17T15:43:47.000Z</time>
      </trkpt>
      <trkpt lat="42.40146" lon="2.48828">
        <ele>732.79998779297</ele>
        <time>2015-12-17T15:43:49.000Z</time>
      </trkpt>
      <trkpt lat="42.40146" lon="2.48831">
        <ele>732.79998779297</ele>
        <time>2015-12-17T15:43:51.000Z</time>
      </trkpt>
      <trkpt lat="42.40146" lon="2.48833">
        <ele>732.59997558594</ele>
        <time>2015-12-17T15:43:53.000Z</time>
      </trkpt>
      <trkpt lat="42.40147" lon="2.48836">
        <ele>732.20001220703</ele>
        <time>2015-12-17T15:43:55.000Z</time>
      </trkpt>
      <trkpt lat="42.40149" lon="2.48839">
        <ele>731.20001220703</ele>
        <time>2015-12-17T15:43:58.000Z</time>
      </trkpt>
      <trkpt lat="42.40151" lon="2.48839">
        <ele>730.59997558594</ele>
        <time>2015-12-17T15:43:59.000Z</time>
      </trkpt>
      <trkpt lat="42.40153" lon="2.4884">
        <ele>729.79998779297</ele>
        <time>2015-12-17T15:44:01.000Z</time>
      </trkpt>
      <trkpt lat="42.40154" lon="2.4884">
        <ele>729.40002441406</ele>
        <time>2015-12-17T15:44:02.000Z</time>
      </trkpt>
      <trkpt lat="42.40158" lon="2.48843">
        <ele>727.59997558594</ele>
        <time>2015-12-17T15:44:06.000Z</time>
      </trkpt>
      <trkpt lat="42.4016" lon="2.48844">
        <ele>726.79998779297</ele>
        <time>2015-12-17T15:44:08.000Z</time>
      </trkpt>
      <trkpt lat="42.40163" lon="2.48847">
        <ele>725.40002441406</ele>
        <time>2015-12-17T15:44:11.000Z</time>
      </trkpt>
      <trkpt lat="42.40167" lon="2.4885">
        <ele>724.40002441406</ele>
        <time>2015-12-17T15:44:15.000Z</time>
      </trkpt>
      <trkpt lat="42.40172" lon="2.48854">
        <ele>723.40002441406</ele>
        <time>2015-12-17T15:44:21.000Z</time>
      </trkpt>
      <trkpt lat="42.40176" lon="2.48859">
        <ele>723</ele>
        <time>2015-12-17T15:44:25.000Z</time>
      </trkpt>
      <trkpt lat="42.40176" lon="2.4886">
        <ele>722.79998779297</ele>
        <time>2015-12-17T15:44:26.000Z</time>
      </trkpt>
      <trkpt lat="42.40175" lon="2.48859">
        <ele>723</ele>
        <time>2015-12-17T15:44:48.000Z</time>
      </trkpt>
      <trkpt lat="42.40171" lon="2.48852">
        <ele>723.40002441406</ele>
        <time>2015-12-17T15:44:52.000Z</time>
      </trkpt>
      <trkpt lat="42.40169" lon="2.48847">
        <ele>723.79998779297</ele>
        <time>2015-12-17T15:44:55.000Z</time>
      </trkpt>
      <trkpt lat="42.40168" lon="2.48845">
        <ele>723.79998779297</ele>
        <time>2015-12-17T15:44:57.000Z</time>
      </trkpt>
      <trkpt lat="42.40168" lon="2.48837">
        <ele>723.59997558594</ele>
        <time>2015-12-17T15:45:02.000Z</time>
      </trkpt>
      <trkpt lat="42.40167" lon="2.48835">
        <ele>723.59997558594</ele>
        <time>2015-12-17T15:45:03.000Z</time>
      </trkpt>
      <trkpt lat="42.40162" lon="2.48825">
        <ele>725.20001220703</ele>
        <time>2015-12-17T15:45:09.000Z</time>
      </trkpt>
      <trkpt lat="42.40162" lon="2.48824">
        <ele>725.40002441406</ele>
        <time>2015-12-17T15:45:10.000Z</time>
      </trkpt>
      <trkpt lat="42.40161" lon="2.48821">
        <ele>725.40002441406</ele>
        <time>2015-12-17T15:45:13.000Z</time>
      </trkpt>
      <trkpt lat="42.40164" lon="2.4882">
        <ele>724.20001220703</ele>
        <time>2015-12-17T15:45:17.000Z</time>
      </trkpt>
      <trkpt lat="42.40165" lon="2.48819">
        <ele>723.20001220703</ele>
        <time>2015-12-17T15:45:19.000Z</time>
      </trkpt>
      <trkpt lat="42.40168" lon="2.48818">
        <ele>722.79998779297</ele>
        <time>2015-12-17T15:45:22.000Z</time>
      </trkpt>
      <trkpt lat="42.40169" lon="2.48817">
        <ele>722.59997558594</ele>
        <time>2015-12-17T15:45:23.000Z</time>
      </trkpt>
      <trkpt lat="42.40171" lon="2.48816">
        <ele>722</ele>
        <time>2015-12-17T15:45:25.000Z</time>
      </trkpt>
      <trkpt lat="42.40176" lon="2.48817">
        <ele>721.20001220703</ele>
        <time>2015-12-17T15:45:29.000Z</time>
      </trkpt>
      <trkpt lat="42.40178" lon="2.48816">
        <ele>721</ele>
        <time>2015-12-17T15:45:31.000Z</time>
      </trkpt>
      <trkpt lat="42.40178" lon="2.48815">
        <ele>720.79998779297</ele>
        <time>2015-12-17T15:45:32.000Z</time>
      </trkpt>
      <trkpt lat="42.40177" lon="2.48814">
        <ele>721</ele>
        <time>2015-12-17T15:45:33.000Z</time>
      </trkpt>
      <trkpt lat="42.40174" lon="2.48811">
        <ele>721.40002441406</ele>
        <time>2015-12-17T15:45:36.000Z</time>
      </trkpt>
      <trkpt lat="42.40173" lon="2.48803">
        <ele>721.20001220703</ele>
        <time>2015-12-17T15:45:40.000Z</time>
      </trkpt>
      <trkpt lat="42.40172" lon="2.48799">
        <ele>721</ele>
        <time>2015-12-17T15:45:43.000Z</time>
      </trkpt>
      <trkpt lat="42.40172" lon="2.48798">
        <ele>721</ele>
        <time>2015-12-17T15:45:44.000Z</time>
      </trkpt>
      <trkpt lat="42.4017" lon="2.48794">
        <ele>721.20001220703</ele>
        <time>2015-12-17T15:45:46.000Z</time>
      </trkpt>
      <trkpt lat="42.40169" lon="2.48788">
        <ele>721.20001220703</ele>
        <time>2015-12-17T15:45:50.000Z</time>
      </trkpt>
      <trkpt lat="42.40167" lon="2.48785">
        <ele>721.20001220703</ele>
        <time>2015-12-17T15:45:52.000Z</time>
      </trkpt>
      <trkpt lat="42.40167" lon="2.48781">
        <ele>721.20001220703</ele>
        <time>2015-12-17T15:45:54.000Z</time>
      </trkpt>
      <trkpt lat="42.40169" lon="2.48776">
        <ele>720.59997558594</ele>
        <time>2015-12-17T15:45:57.000Z</time>
      </trkpt>
      <trkpt lat="42.40177" lon="2.48771">
        <ele>718.79998779297</ele>
        <time>2015-12-17T15:46:03.000Z</time>
      </trkpt>
      <trkpt lat="42.40181" lon="2.4877">
        <ele>718</ele>
        <time>2015-12-17T15:46:07.000Z</time>
      </trkpt>
      <trkpt lat="42.40183" lon="2.48776">
        <ele>718</ele>
        <time>2015-12-17T15:46:11.000Z</time>
      </trkpt>
      <trkpt lat="42.40185" lon="2.48784">
        <ele>718</ele>
        <time>2015-12-17T15:46:16.000Z</time>
      </trkpt>
      <trkpt lat="42.40189" lon="2.4879">
        <ele>717.59997558594</ele>
        <time>2015-12-17T15:46:20.000Z</time>
      </trkpt>
      <trkpt lat="42.40192" lon="2.48796">
        <ele>717.40002441406</ele>
        <time>2015-12-17T15:46:24.000Z</time>
      </trkpt>
      <trkpt lat="42.40193" lon="2.48799">
        <ele>717.20001220703</ele>
        <time>2015-12-17T15:46:26.000Z</time>
      </trkpt>
      <trkpt lat="42.40195" lon="2.48806">
        <ele>717.40002441406</ele>
        <time>2015-12-17T15:46:30.000Z</time>
      </trkpt>
      <trkpt lat="42.40196" lon="2.48809">
        <ele>717.40002441406</ele>
        <time>2015-12-17T15:46:32.000Z</time>
      </trkpt>
      <trkpt lat="42.40201" lon="2.48816">
        <ele>716.59997558594</ele>
        <time>2015-12-17T15:46:38.000Z</time>
      </trkpt>
      <trkpt lat="42.40203" lon="2.48817">
        <ele>716.40002441406</ele>
        <time>2015-12-17T15:46:41.000Z</time>
      </trkpt>
      <trkpt lat="42.40205" lon="2.48818">
        <ele>716.20001220703</ele>
        <time>2015-12-17T15:46:47.000Z</time>
      </trkpt>
      <trkpt lat="42.40208" lon="2.48824">
        <ele>715.79998779297</ele>
        <time>2015-12-17T15:46:50.000Z</time>
      </trkpt>
      <trkpt lat="42.40212" lon="2.48833">
        <ele>715.59997558594</ele>
        <time>2015-12-17T15:46:56.000Z</time>
      </trkpt>
      <trkpt lat="42.40215" lon="2.48836">
        <ele>715</ele>
        <time>2015-12-17T15:47:00.000Z</time>
      </trkpt>
      <trkpt lat="42.40215" lon="2.48835">
        <ele>715</ele>
        <time>2015-12-17T15:47:02.000Z</time>
      </trkpt>
      <trkpt lat="42.40217" lon="2.48834">
        <ele>714.59997558594</ele>
        <time>2015-12-17T15:47:04.000Z</time>
      </trkpt>
      <trkpt lat="42.40218" lon="2.48833">
        <ele>714.40002441406</ele>
        <time>2015-12-17T15:47:05.000Z</time>
      </trkpt>
      <trkpt lat="42.40223" lon="2.48829">
        <ele>713.40002441406</ele>
        <time>2015-12-17T15:47:09.000Z</time>
      </trkpt>
      <trkpt lat="42.40225" lon="2.48828">
        <ele>713</ele>
        <time>2015-12-17T15:47:10.000Z</time>
      </trkpt>
      <trkpt lat="42.40228" lon="2.48824">
        <ele>712.20001220703</ele>
        <time>2015-12-17T15:47:13.000Z</time>
      </trkpt>
      <trkpt lat="42.40228" lon="2.48822">
        <ele>712.20001220703</ele>
        <time>2015-12-17T15:47:14.000Z</time>
      </trkpt>
      <trkpt lat="42.40228" lon="2.48817">
        <ele>711.79998779297</ele>
        <time>2015-12-17T15:47:19.000Z</time>
      </trkpt>
      <trkpt lat="42.40224" lon="2.4881">
        <ele>712.40002441406</ele>
        <time>2015-12-17T15:47:24.000Z</time>
      </trkpt>
      <trkpt lat="42.40222" lon="2.48807">
        <ele>712.59997558594</ele>
        <time>2015-12-17T15:47:28.000Z</time>
      </trkpt>
      <trkpt lat="42.4022" lon="2.48801">
        <ele>712.59997558594</ele>
        <time>2015-12-17T15:47:31.000Z</time>
      </trkpt>
      <trkpt lat="42.40218" lon="2.48798">
        <ele>712.79998779297</ele>
        <time>2015-12-17T15:47:33.000Z</time>
      </trkpt>
      <trkpt lat="42.40215" lon="2.48793">
        <ele>713.20001220703</ele>
        <time>2015-12-17T15:47:35.000Z</time>
      </trkpt>
      <trkpt lat="42.40215" lon="2.48791">
        <ele>713.20001220703</ele>
        <time>2015-12-17T15:47:36.000Z</time>
      </trkpt>
      <trkpt lat="42.40215" lon="2.48785">
        <ele>713.20001220703</ele>
        <time>2015-12-17T15:47:40.000Z</time>
      </trkpt>
      <trkpt lat="42.40212" lon="2.48782">
        <ele>713.40002441406</ele>
        <time>2015-12-17T15:47:42.000Z</time>
      </trkpt>
      <trkpt lat="42.4021" lon="2.48779">
        <ele>713.59997558594</ele>
        <time>2015-12-17T15:47:44.000Z</time>
      </trkpt>
      <trkpt lat="42.40207" lon="2.48774">
        <ele>714</ele>
        <time>2015-12-17T15:47:48.000Z</time>
      </trkpt>
      <trkpt lat="42.40202" lon="2.48768">
        <ele>714.59997558594</ele>
        <time>2015-12-17T15:47:52.000Z</time>
      </trkpt>
      <trkpt lat="42.40202" lon="2.48766">
        <ele>714.59997558594</ele>
        <time>2015-12-17T15:47:53.000Z</time>
      </trkpt>
      <trkpt lat="42.402" lon="2.48762">
        <ele>714.79998779297</ele>
        <time>2015-12-17T15:47:56.000Z</time>
      </trkpt>
      <trkpt lat="42.40195" lon="2.48755">
        <ele>715.40002441406</ele>
        <time>2015-12-17T15:48:02.000Z</time>
      </trkpt>
      <trkpt lat="42.40192" lon="2.48747">
        <ele>715.79998779297</ele>
        <time>2015-12-17T15:48:08.000Z</time>
      </trkpt>
      <trkpt lat="42.40191" lon="2.48745">
        <ele>715.79998779297</ele>
        <time>2015-12-17T15:48:09.000Z</time>
      </trkpt>
      <trkpt lat="42.4019" lon="2.4874">
        <ele>715.79998779297</ele>
        <time>2015-12-17T15:48:12.000Z</time>
      </trkpt>
      <trkpt lat="42.40189" lon="2.48738">
        <ele>715.79998779297</ele>
        <time>2015-12-17T15:48:14.000Z</time>
      </trkpt>
      <trkpt lat="42.40189" lon="2.48735">
        <ele>715.79998779297</ele>
        <time>2015-12-17T15:48:16.000Z</time>
      </trkpt>
      <trkpt lat="42.4019" lon="2.48733">
        <ele>715.59997558594</ele>
        <time>2015-12-17T15:48:17.000Z</time>
      </trkpt>
      <trkpt lat="42.40188" lon="2.48727">
        <ele>715.59997558594</ele>
        <time>2015-12-17T15:48:20.000Z</time>
      </trkpt>
      <trkpt lat="42.40186" lon="2.48724">
        <ele>715.79998779297</ele>
        <time>2015-12-17T15:48:22.000Z</time>
      </trkpt>
      <trkpt lat="42.40184" lon="2.48713">
        <ele>715.79998779297</ele>
        <time>2015-12-17T15:48:27.000Z</time>
      </trkpt>
      <trkpt lat="42.40179" lon="2.48707">
        <ele>716.20001220703</ele>
        <time>2015-12-17T15:48:33.000Z</time>
      </trkpt>
      <trkpt lat="42.40174" lon="2.48708">
        <ele>717</ele>
        <time>2015-12-17T15:48:39.000Z</time>
      </trkpt>
      <trkpt lat="42.40172" lon="2.48709">
        <ele>717.40002441406</ele>
        <time>2015-12-17T15:48:41.000Z</time>
      </trkpt>
      <trkpt lat="42.40171" lon="2.48709">
        <ele>717.59997558594</ele>
        <time>2015-12-17T15:48:43.000Z</time>
      </trkpt>
      <trkpt lat="42.40164" lon="2.48711">
        <ele>719.20001220703</ele>
        <time>2015-12-17T15:48:50.000Z</time>
      </trkpt>
      <trkpt lat="42.4016" lon="2.48712">
        <ele>721.79998779297</ele>
        <time>2015-12-17T15:48:54.000Z</time>
      </trkpt>
      <trkpt lat="42.40156" lon="2.48711">
        <ele>724</ele>
        <time>2015-12-17T15:49:03.000Z</time>
      </trkpt>
      <trkpt lat="42.40153" lon="2.4871">
        <ele>726.20001220703</ele>
        <time>2015-12-17T15:49:06.000Z</time>
      </trkpt>
      <trkpt lat="42.40149" lon="2.48709">
        <ele>728.40002441406</ele>
        <time>2015-12-17T15:49:08.000Z</time>
      </trkpt>
      <trkpt lat="42.40148" lon="2.48707">
        <ele>729</ele>
        <time>2015-12-17T15:49:10.000Z</time>
      </trkpt>
      <trkpt lat="42.40146" lon="2.48702">
        <ele>729.79998779297</ele>
        <time>2015-12-17T15:49:12.000Z</time>
      </trkpt>
      <trkpt lat="42.40144" lon="2.48695">
        <ele>731</ele>
        <time>2015-12-17T15:49:16.000Z</time>
      </trkpt>
      <trkpt lat="42.40143" lon="2.48694">
        <ele>731.79998779297</ele>
        <time>2015-12-17T15:49:17.000Z</time>
      </trkpt>
      <trkpt lat="42.40144" lon="2.48689">
        <ele>730.59997558594</ele>
        <time>2015-12-17T15:49:20.000Z</time>
      </trkpt>
      <trkpt lat="42.40144" lon="2.48688">
        <ele>730.59997558594</ele>
        <time>2015-12-17T15:49:21.000Z</time>
      </trkpt>
      <trkpt lat="42.40147" lon="2.48681">
        <ele>728.59997558594</ele>
        <time>2015-12-17T15:49:25.000Z</time>
      </trkpt>
      <trkpt lat="42.40148" lon="2.48679">
        <ele>727.79998779297</ele>
        <time>2015-12-17T15:49:26.000Z</time>
      </trkpt>
      <trkpt lat="42.40148" lon="2.48678">
        <ele>727.59997558594</ele>
        <time>2015-12-17T15:49:27.000Z</time>
      </trkpt>
      <trkpt lat="42.40149" lon="2.48674">
        <ele>726.79998779297</ele>
        <time>2015-12-17T15:49:29.000Z</time>
      </trkpt>
      <trkpt lat="42.40153" lon="2.48668">
        <ele>724.20001220703</ele>
        <time>2015-12-17T15:49:33.000Z</time>
      </trkpt>
      <trkpt lat="42.40154" lon="2.48666">
        <ele>723.79998779297</ele>
        <time>2015-12-17T15:49:34.000Z</time>
      </trkpt>
      <trkpt lat="42.40156" lon="2.48659">
        <ele>722</ele>
        <time>2015-12-17T15:49:37.000Z</time>
      </trkpt>
      <trkpt lat="42.40158" lon="2.48652">
        <ele>720.79998779297</ele>
        <time>2015-12-17T15:49:41.000Z</time>
      </trkpt>
      <trkpt lat="42.40158" lon="2.48645">
        <ele>721</ele>
        <time>2015-12-17T15:49:44.000Z</time>
      </trkpt>
      <trkpt lat="42.40157" lon="2.4864">
        <ele>721.20001220703</ele>
        <time>2015-12-17T15:49:46.000Z</time>
      </trkpt>
      <trkpt lat="42.40156" lon="2.48637">
        <ele>721.59997558594</ele>
        <time>2015-12-17T15:49:48.000Z</time>
      </trkpt>
      <trkpt lat="42.40157" lon="2.48633">
        <ele>721</ele>
        <time>2015-12-17T15:49:50.000Z</time>
      </trkpt>
      <trkpt lat="42.40158" lon="2.48627">
        <ele>720.40002441406</ele>
        <time>2015-12-17T15:49:53.000Z</time>
      </trkpt>
      <trkpt lat="42.40158" lon="2.48625">
        <ele>720.20001220703</ele>
        <time>2015-12-17T15:49:54.000Z</time>
      </trkpt>
      <trkpt lat="42.40157" lon="2.48617">
        <ele>720.20001220703</ele>
        <time>2015-12-17T15:49:58.000Z</time>
      </trkpt>
      <trkpt lat="42.40157" lon="2.48615">
        <ele>720.59997558594</ele>
        <time>2015-12-17T15:49:59.000Z</time>
      </trkpt>
      <trkpt lat="42.40158" lon="2.4861">
        <ele>719.59997558594</ele>
        <time>2015-12-17T15:50:02.000Z</time>
      </trkpt>
      <trkpt lat="42.40159" lon="2.48606">
        <ele>719</ele>
        <time>2015-12-17T15:50:04.000Z</time>
      </trkpt>
      <trkpt lat="42.4016" lon="2.48602">
        <ele>718.59997558594</ele>
        <time>2015-12-17T15:50:06.000Z</time>
      </trkpt>
      <trkpt lat="42.40158" lon="2.48597">
        <ele>719.59997558594</ele>
        <time>2015-12-17T15:50:09.000Z</time>
      </trkpt>
      <trkpt lat="42.40157" lon="2.48588">
        <ele>719.79998779297</ele>
        <time>2015-12-17T15:50:15.000Z</time>
      </trkpt>
      <trkpt lat="42.40157" lon="2.48584">
        <ele>720</ele>
        <time>2015-12-17T15:50:17.000Z</time>
      </trkpt>
      <trkpt lat="42.40157" lon="2.48578">
        <ele>719.20001220703</ele>
        <time>2015-12-17T15:50:21.000Z</time>
      </trkpt>
      <trkpt lat="42.40157" lon="2.48568">
        <ele>718.59997558594</ele>
        <time>2015-12-17T15:50:27.000Z</time>
      </trkpt>
      <trkpt lat="42.40158" lon="2.48563">
        <ele>718.59997558594</ele>
        <time>2015-12-17T15:50:31.000Z</time>
      </trkpt>
      <trkpt lat="42.40158" lon="2.48561">
        <ele>718.20001220703</ele>
        <time>2015-12-17T15:50:32.000Z</time>
      </trkpt>
      <trkpt lat="42.40159" lon="2.48558">
        <ele>718.20001220703</ele>
        <time>2015-12-17T15:50:34.000Z</time>
      </trkpt>
      <trkpt lat="42.40158" lon="2.48555">
        <ele>718.40002441406</ele>
        <time>2015-12-17T15:50:36.000Z</time>
      </trkpt>
      <trkpt lat="42.40159" lon="2.48554">
        <ele>718.20001220703</ele>
        <time>2015-12-17T15:50:37.000Z</time>
      </trkpt>
      <trkpt lat="42.4016" lon="2.48553">
        <ele>717.79998779297</ele>
        <time>2015-12-17T15:50:38.000Z</time>
      </trkpt>
      <trkpt lat="42.40161" lon="2.48543">
        <ele>717.20001220703</ele>
        <time>2015-12-17T15:50:44.000Z</time>
      </trkpt>
      <trkpt lat="42.40163" lon="2.48537">
        <ele>716.59997558594</ele>
        <time>2015-12-17T15:50:48.000Z</time>
      </trkpt>
      <trkpt lat="42.40163" lon="2.48528">
        <ele>716.59997558594</ele>
        <time>2015-12-17T15:50:53.000Z</time>
      </trkpt>
      <trkpt lat="42.40164" lon="2.48523">
        <ele>716.40002441406</ele>
        <time>2015-12-17T15:50:55.000Z</time>
      </trkpt>
      <trkpt lat="42.40164" lon="2.4852">
        <ele>716.20001220703</ele>
        <time>2015-12-17T15:50:57.000Z</time>
      </trkpt>
      <trkpt lat="42.40166" lon="2.48511">
        <ele>715.79998779297</ele>
        <time>2015-12-17T15:51:03.000Z</time>
      </trkpt>
      <trkpt lat="42.40166" lon="2.48509">
        <ele>715.79998779297</ele>
        <time>2015-12-17T15:51:04.000Z</time>
      </trkpt>
      <trkpt lat="42.40165" lon="2.48497">
        <ele>716</ele>
        <time>2015-12-17T15:51:11.000Z</time>
      </trkpt>
      <trkpt lat="42.4016" lon="2.48485">
        <ele>718</ele>
        <time>2015-12-17T15:51:18.000Z</time>
      </trkpt>
      <trkpt lat="42.40157" lon="2.4848">
        <ele>719</ele>
        <time>2015-12-17T15:51:21.000Z</time>
      </trkpt>
      <trkpt lat="42.40155" lon="2.48478">
        <ele>719.40002441406</ele>
        <time>2015-12-17T15:51:23.000Z</time>
      </trkpt>
      <trkpt lat="42.40155" lon="2.48476">
        <ele>719.59997558594</ele>
        <time>2015-12-17T15:51:24.000Z</time>
      </trkpt>
      <trkpt lat="42.40153" lon="2.48465">
        <ele>720.40002441406</ele>
        <time>2015-12-17T15:51:30.000Z</time>
      </trkpt>
      <trkpt lat="42.40152" lon="2.48457">
        <ele>720.79998779297</ele>
        <time>2015-12-17T15:51:35.000Z</time>
      </trkpt>
      <trkpt lat="42.4015" lon="2.4845">
        <ele>721.20001220703</ele>
        <time>2015-12-17T15:51:39.000Z</time>
      </trkpt>
      <trkpt lat="42.40151" lon="2.48442">
        <ele>721</ele>
        <time>2015-12-17T15:51:43.000Z</time>
      </trkpt>
      <trkpt lat="42.40151" lon="2.48432">
        <ele>721</ele>
        <time>2015-12-17T15:51:49.000Z</time>
      </trkpt>
      <trkpt lat="42.40152" lon="2.48429">
        <ele>720.79998779297</ele>
        <time>2015-12-17T15:51:51.000Z</time>
      </trkpt>
      <trkpt lat="42.40153" lon="2.48422">
        <ele>720.40002441406</ele>
        <time>2015-12-17T15:51:55.000Z</time>
      </trkpt>
      <trkpt lat="42.40153" lon="2.4842">
        <ele>720.40002441406</ele>
        <time>2015-12-17T15:51:56.000Z</time>
      </trkpt>
      <trkpt lat="42.40153" lon="2.48414">
        <ele>720</ele>
        <time>2015-12-17T15:51:59.000Z</time>
      </trkpt>
      <trkpt lat="42.40153" lon="2.48412">
        <ele>719.79998779297</ele>
        <time>2015-12-17T15:52:00.000Z</time>
      </trkpt>
      <trkpt lat="42.40154" lon="2.48409">
        <ele>719.40002441406</ele>
        <time>2015-12-17T15:52:02.000Z</time>
      </trkpt>
      <trkpt lat="42.40154" lon="2.48405">
        <ele>719</ele>
        <time>2015-12-17T15:52:04.000Z</time>
      </trkpt>
      <trkpt lat="42.40153" lon="2.48395">
        <ele>719.40002441406</ele>
        <time>2015-12-17T15:52:11.000Z</time>
      </trkpt>
      <trkpt lat="42.40149" lon="2.48388">
        <ele>720.59997558594</ele>
        <time>2015-12-17T15:52:16.000Z</time>
      </trkpt>
      <trkpt lat="42.40148" lon="2.48386">
        <ele>720.79998779297</ele>
        <time>2015-12-17T15:52:17.000Z</time>
      </trkpt>
      <trkpt lat="42.40148" lon="2.48382">
        <ele>721.20001220703</ele>
        <time>2015-12-17T15:52:20.000Z</time>
      </trkpt>
      <trkpt lat="42.40147" lon="2.4838">
        <ele>721.40002441406</ele>
        <time>2015-12-17T15:52:21.000Z</time>
      </trkpt>
      <trkpt lat="42.40147" lon="2.48378">
        <ele>721.40002441406</ele>
        <time>2015-12-17T15:52:22.000Z</time>
      </trkpt>
      <trkpt lat="42.40147" lon="2.48375">
        <ele>721.79998779297</ele>
        <time>2015-12-17T15:52:24.000Z</time>
      </trkpt>
      <trkpt lat="42.40146" lon="2.48371">
        <ele>722</ele>
        <time>2015-12-17T15:52:26.000Z</time>
      </trkpt>
      <trkpt lat="42.40146" lon="2.48369">
        <ele>722</ele>
        <time>2015-12-17T15:52:27.000Z</time>
      </trkpt>
      <trkpt lat="42.40147" lon="2.48364">
        <ele>722</ele>
        <time>2015-12-17T15:52:30.000Z</time>
      </trkpt>
      <trkpt lat="42.40146" lon="2.48361">
        <ele>722.40002441406</ele>
        <time>2015-12-17T15:52:31.000Z</time>
      </trkpt>
      <trkpt lat="42.40145" lon="2.48354">
        <ele>722.79998779297</ele>
        <time>2015-12-17T15:52:35.000Z</time>
      </trkpt>
      <trkpt lat="42.40145" lon="2.48352">
        <ele>722.79998779297</ele>
        <time>2015-12-17T15:52:36.000Z</time>
      </trkpt>
      <trkpt lat="42.40144" lon="2.4834">
        <ele>723.59997558594</ele>
        <time>2015-12-17T15:52:43.000Z</time>
      </trkpt>
      <trkpt lat="42.40144" lon="2.48337">
        <ele>723.79998779297</ele>
        <time>2015-12-17T15:52:45.000Z</time>
      </trkpt>
      <trkpt lat="42.40145" lon="2.48331">
        <ele>723.40002441406</ele>
        <time>2015-12-17T15:52:49.000Z</time>
      </trkpt>
      <trkpt lat="42.40146" lon="2.48323">
        <ele>722.79998779297</ele>
        <time>2015-12-17T15:52:53.000Z</time>
      </trkpt>
      <trkpt lat="42.40147" lon="2.4832">
        <ele>722.40002441406</ele>
        <time>2015-12-17T15:52:55.000Z</time>
      </trkpt>
      <trkpt lat="42.40147" lon="2.48317">
        <ele>722</ele>
        <time>2015-12-17T15:52:57.000Z</time>
      </trkpt>
      <trkpt lat="42.40148" lon="2.48314">
        <ele>721.79998779297</ele>
        <time>2015-12-17T15:52:59.000Z</time>
      </trkpt>
      <trkpt lat="42.40147" lon="2.4831">
        <ele>722</ele>
        <time>2015-12-17T15:53:01.000Z</time>
      </trkpt>
      <trkpt lat="42.40144" lon="2.48302">
        <ele>722.59997558594</ele>
        <time>2015-12-17T15:53:06.000Z</time>
      </trkpt>
      <trkpt lat="42.40144" lon="2.48301">
        <ele>722.59997558594</ele>
        <time>2015-12-17T15:53:07.000Z</time>
      </trkpt>
      <trkpt lat="42.40143" lon="2.48299">
        <ele>722.79998779297</ele>
        <time>2015-12-17T15:53:08.000Z</time>
      </trkpt>
      <trkpt lat="42.4014" lon="2.48293">
        <ele>723.40002441406</ele>
        <time>2015-12-17T15:53:12.000Z</time>
      </trkpt>
      <trkpt lat="42.4014" lon="2.48292">
        <ele>723.40002441406</ele>
        <time>2015-12-17T15:53:13.000Z</time>
      </trkpt>
      <trkpt lat="42.4014" lon="2.48283">
        <ele>723.59997558594</ele>
        <time>2015-12-17T15:53:18.000Z</time>
      </trkpt>
      <trkpt lat="42.4014" lon="2.48282">
        <ele>723.40002441406</ele>
        <time>2015-12-17T15:53:19.000Z</time>
      </trkpt>
      <trkpt lat="42.4014" lon="2.48278">
        <ele>723.59997558594</ele>
        <time>2015-12-17T15:53:22.000Z</time>
      </trkpt>
      <trkpt lat="42.40138" lon="2.48274">
        <ele>724</ele>
        <time>2015-12-17T15:53:24.000Z</time>
      </trkpt>
      <trkpt lat="42.40138" lon="2.48272">
        <ele>724</ele>
        <time>2015-12-17T15:53:25.000Z</time>
      </trkpt>
      <trkpt lat="42.40137" lon="2.48266">
        <ele>724.20001220703</ele>
        <time>2015-12-17T15:53:29.000Z</time>
      </trkpt>
      <trkpt lat="42.40138" lon="2.48264">
        <ele>724</ele>
        <time>2015-12-17T15:53:30.000Z</time>
      </trkpt>
      <trkpt lat="42.40135" lon="2.48257">
        <ele>724.59997558594</ele>
        <time>2015-12-17T15:53:34.000Z</time>
      </trkpt>
      <trkpt lat="42.40133" lon="2.48253">
        <ele>725</ele>
        <time>2015-12-17T15:53:37.000Z</time>
      </trkpt>
      <trkpt lat="42.40131" lon="2.4825">
        <ele>725.20001220703</ele>
        <time>2015-12-17T15:53:39.000Z</time>
      </trkpt>
      <trkpt lat="42.40129" lon="2.48242">
        <ele>725.40002441406</ele>
        <time>2015-12-17T15:53:44.000Z</time>
      </trkpt>
      <trkpt lat="42.40128" lon="2.48241">
        <ele>725.40002441406</ele>
        <time>2015-12-17T15:53:45.000Z</time>
      </trkpt>
      <trkpt lat="42.40129" lon="2.48234">
        <ele>725</ele>
        <time>2015-12-17T15:53:50.000Z</time>
      </trkpt>
      <trkpt lat="42.4013" lon="2.48233">
        <ele>725</ele>
        <time>2015-12-17T15:53:51.000Z</time>
      </trkpt>
      <trkpt lat="42.4013" lon="2.48233">
        <ele>724.79998779297</ele>
        <time>2015-12-17T15:53:52.000Z</time>
      </trkpt>
      <trkpt lat="42.40134" lon="2.4823">
        <ele>724.20001220703</ele>
        <time>2015-12-17T15:53:56.000Z</time>
      </trkpt>
      <trkpt lat="42.40134" lon="2.4823">
        <ele>724</ele>
        <time>2015-12-17T15:53:57.000Z</time>
      </trkpt>
      <trkpt lat="42.40137" lon="2.48227">
        <ele>723.59997558594</ele>
        <time>2015-12-17T15:54:01.000Z</time>
      </trkpt>
      <trkpt lat="42.40143" lon="2.48221">
        <ele>722.79998779297</ele>
        <time>2015-12-17T15:54:07.000Z</time>
      </trkpt>
      <trkpt lat="42.4015" lon="2.48217">
        <ele>722.40002441406</ele>
        <time>2015-12-17T15:54:13.000Z</time>
      </trkpt>
      <trkpt lat="42.40158" lon="2.48214">
        <ele>721.79998779297</ele>
        <time>2015-12-17T15:54:30.000Z</time>
      </trkpt>
      <trkpt lat="42.4016" lon="2.48213">
        <ele>721.79998779297</ele>
        <time>2015-12-17T15:54:31.000Z</time>
      </trkpt>
      <trkpt lat="42.4016" lon="2.48212">
        <ele>721.79998779297</ele>
        <time>2015-12-17T15:54:32.000Z</time>
      </trkpt>
      <trkpt lat="42.40164" lon="2.48208">
        <ele>721.59997558594</ele>
        <time>2015-12-17T15:54:36.000Z</time>
      </trkpt>
      <trkpt lat="42.40168" lon="2.48206">
        <ele>721.59997558594</ele>
        <time>2015-12-17T15:54:41.000Z</time>
      </trkpt>
      <trkpt lat="42.4017" lon="2.48206">
        <ele>721.59997558594</ele>
        <time>2015-12-17T15:54:43.000Z</time>
      </trkpt>
      <trkpt lat="42.40172" lon="2.48206">
        <ele>721.59997558594</ele>
        <time>2015-12-17T15:54:46.000Z</time>
      </trkpt>
      <trkpt lat="42.40173" lon="2.48206">
        <ele>721.59997558594</ele>
        <time>2015-12-17T15:54:47.000Z</time>
      </trkpt>
      <trkpt lat="42.40175" lon="2.48205">
        <ele>721.59997558594</ele>
        <time>2015-12-17T15:54:51.000Z</time>
      </trkpt>
      <trkpt lat="42.40177" lon="2.48202">
        <ele>721.79998779297</ele>
        <time>2015-12-17T15:54:57.000Z</time>
      </trkpt>
      <trkpt lat="42.40177" lon="2.48199">
        <ele>721.79998779297</ele>
        <time>2015-12-17T15:55:03.000Z</time>
      </trkpt>
      <trkpt lat="42.40177" lon="2.48191">
        <ele>722.20001220703</ele>
        <time>2015-12-17T15:55:47.000Z</time>
      </trkpt>
      <trkpt lat="42.40176" lon="2.48187">
        <ele>722.20001220703</ele>
        <time>2015-12-17T15:56:09.000Z</time>
      </trkpt>
      <trkpt lat="42.40172" lon="2.48183">
        <ele>722.40002441406</ele>
        <time>2015-12-17T15:56:13.000Z</time>
      </trkpt>
      <trkpt lat="42.40172" lon="2.48182">
        <ele>722.40002441406</ele>
        <time>2015-12-17T15:56:14.000Z</time>
      </trkpt>
      <trkpt lat="42.40168" lon="2.48176">
        <ele>722.59997558594</ele>
        <time>2015-12-17T15:56:18.000Z</time>
      </trkpt>
      <trkpt lat="42.40166" lon="2.48176">
        <ele>722.59997558594</ele>
        <time>2015-12-17T15:56:19.000Z</time>
      </trkpt>
      <trkpt lat="42.40159" lon="2.48171">
        <ele>723.40002441406</ele>
        <time>2015-12-17T15:56:24.000Z</time>
      </trkpt>
      <trkpt lat="42.40153" lon="2.48167">
        <ele>724</ele>
        <time>2015-12-17T15:56:29.000Z</time>
      </trkpt>
      <trkpt lat="42.40148" lon="2.48162">
        <ele>724.59997558594</ele>
        <time>2015-12-17T15:56:34.000Z</time>
      </trkpt>
      <trkpt lat="42.40147" lon="2.48161">
        <ele>724.59997558594</ele>
        <time>2015-12-17T15:56:35.000Z</time>
      </trkpt>
      <trkpt lat="42.40145" lon="2.48159">
        <ele>724.79998779297</ele>
        <time>2015-12-17T15:56:38.000Z</time>
      </trkpt>
      <trkpt lat="42.40145" lon="2.48157">
        <ele>725</ele>
        <time>2015-12-17T15:56:39.000Z</time>
      </trkpt>
      <trkpt lat="42.40144" lon="2.4815">
        <ele>725.20001220703</ele>
        <time>2015-12-17T15:56:44.000Z</time>
      </trkpt>
      <trkpt lat="42.40144" lon="2.48147">
        <ele>725.20001220703</ele>
        <time>2015-12-17T15:56:47.000Z</time>
      </trkpt>
      <trkpt lat="42.40144" lon="2.48146">
        <ele>725.20001220703</ele>
        <time>2015-12-17T15:56:51.000Z</time>
      </trkpt>
      <trkpt lat="42.4014" lon="2.48141">
        <ele>725.79998779297</ele>
        <time>2015-12-17T15:56:56.000Z</time>
      </trkpt>
      <trkpt lat="42.40136" lon="2.48135">
        <ele>726.20001220703</ele>
        <time>2015-12-17T15:57:01.000Z</time>
      </trkpt>
      <trkpt lat="42.40134" lon="2.48131">
        <ele>726.59997558594</ele>
        <time>2015-12-17T15:57:05.000Z</time>
      </trkpt>
      <trkpt lat="42.40134" lon="2.48128">
        <ele>726.79998779297</ele>
        <time>2015-12-17T15:57:07.000Z</time>
      </trkpt>
      <trkpt lat="42.40137" lon="2.48123">
        <ele>727</ele>
        <time>2015-12-17T15:57:12.000Z</time>
      </trkpt>
      <trkpt lat="42.4014" lon="2.48122">
        <ele>726.79998779297</ele>
        <time>2015-12-17T15:57:14.000Z</time>
      </trkpt>
      <trkpt lat="42.40142" lon="2.48121">
        <ele>726.79998779297</ele>
        <time>2015-12-17T15:57:16.000Z</time>
      </trkpt>
      <trkpt lat="42.40143" lon="2.4812">
        <ele>726.79998779297</ele>
        <time>2015-12-17T15:57:17.000Z</time>
      </trkpt>
      <trkpt lat="42.40146" lon="2.48119">
        <ele>726.79998779297</ele>
        <time>2015-12-17T15:57:21.000Z</time>
      </trkpt>
      <trkpt lat="42.4015" lon="2.48118">
        <ele>726.59997558594</ele>
        <time>2015-12-17T15:57:24.000Z</time>
      </trkpt>
      <trkpt lat="42.40151" lon="2.48117">
        <ele>726.59997558594</ele>
        <time>2015-12-17T15:57:25.000Z</time>
      </trkpt>
      <trkpt lat="42.40155" lon="2.48114">
        <ele>726.59997558594</ele>
        <time>2015-12-17T15:57:29.000Z</time>
      </trkpt>
      <trkpt lat="42.40156" lon="2.48113">
        <ele>726.59997558594</ele>
        <time>2015-12-17T15:57:30.000Z</time>
      </trkpt>
      <trkpt lat="42.40165" lon="2.48105">
        <ele>726.59997558594</ele>
        <time>2015-12-17T15:57:36.000Z</time>
      </trkpt>
      <trkpt lat="42.40175" lon="2.48097">
        <ele>726.79998779297</ele>
        <time>2015-12-17T15:57:44.000Z</time>
      </trkpt>
      <trkpt lat="42.40178" lon="2.48097">
        <ele>726.79998779297</ele>
        <time>2015-12-17T15:57:46.000Z</time>
      </trkpt>
      <trkpt lat="42.4018" lon="2.48097">
        <ele>726.79998779297</ele>
        <time>2015-12-17T15:57:48.000Z</time>
      </trkpt>
      <trkpt lat="42.40185" lon="2.48101">
        <ele>726.40002441406</ele>
        <time>2015-12-17T15:57:53.000Z</time>
      </trkpt>
      <trkpt lat="42.40191" lon="2.48105">
        <ele>726</ele>
        <time>2015-12-17T15:57:57.000Z</time>
      </trkpt>
      <trkpt lat="42.40192" lon="2.48104">
        <ele>725.79998779297</ele>
        <time>2015-12-17T15:57:58.000Z</time>
      </trkpt>
      <trkpt lat="42.40198" lon="2.48097">
        <ele>725.79998779297</ele>
        <time>2015-12-17T15:58:03.000Z</time>
      </trkpt>
      <trkpt lat="42.40198" lon="2.48096">
        <ele>725.79998779297</ele>
        <time>2015-12-17T15:58:04.000Z</time>
      </trkpt>
      <trkpt lat="42.402" lon="2.48091">
        <ele>725.59997558594</ele>
        <time>2015-12-17T15:58:07.000Z</time>
      </trkpt>
      <trkpt lat="42.40206" lon="2.48083">
        <ele>725.59997558594</ele>
        <time>2015-12-17T15:58:13.000Z</time>
      </trkpt>
      <trkpt lat="42.40212" lon="2.48071">
        <ele>726.79998779297</ele>
        <time>2015-12-17T15:58:20.000Z</time>
      </trkpt>
      <trkpt lat="42.40213" lon="2.4807">
        <ele>727</ele>
        <time>2015-12-17T15:58:21.000Z</time>
      </trkpt>
      <trkpt lat="42.40218" lon="2.4806">
        <ele>728</ele>
        <time>2015-12-17T15:58:27.000Z</time>
      </trkpt>
      <trkpt lat="42.40223" lon="2.48052">
        <ele>728.59997558594</ele>
        <time>2015-12-17T15:58:32.000Z</time>
      </trkpt>
      <trkpt lat="42.40223" lon="2.48051">
        <ele>728.59997558594</ele>
        <time>2015-12-17T15:58:33.000Z</time>
      </trkpt>
      <trkpt lat="42.40224" lon="2.48051">
        <ele>728.40002441406</ele>
        <time>2015-12-17T15:58:41.000Z</time>
      </trkpt>
      <trkpt lat="42.40224" lon="2.48051">
        <ele>728.40002441406</ele>
        <time>2015-12-17T15:58:43.000Z</time>
      </trkpt>
    </trkseg>
  </trk>
</gpx>